Harold, Kentucky
Current Conditions -  °F | °C
As of 10:55 PM on Friday 24 Oct 2014 (Local Time) from KPBX Reporting Station
Clear Clear  
Wind Chill: 48°   Ceiling: Unl
Heat Index: 49°   Visibility: 10mi
Dew Point: 41°   Wind: 5mph
Humidity: 73%   Direction: 170°S
Pressure: 30.08"   Gusts: NA
Location:  37.54°N, 82.63°W
Report Text: KPBX 250255Z AUTO 17004KT 10SM CLR 10/05 A3008 RMK AO2 T00970050
Loading
Personal Weather Stations






























Interactive Weather Map
Tropical Storm Tracking
New forecast layout! Learn more

10-Day Weather Forecast

Advertisements
Track Severe Weather on mobile